Seven Valleys, Pennsylvania
Current Conditions -  °F | °C
As of 3:53 AM on Saturday 01 Nov 2014 (Local Time) from KTHV Reporting Station
Light Rain Light Rain  
Wind Chill: 43°   Ceiling: 2000
Heat Index: 46°   Visibility: 10mi
Dew Point: 40°   Wind: 6mph
Humidity: 79%   Direction: 340°NNW
Pressure: 29.8"   Gusts: NA
Location:  39.86°N, 76.77°W
Report Text: KTHV 010753Z AUTO 34005KT 10SM -RA OVC020 08/04 A2980 RMK AO2 RAB44 SLP096 P0000 T00780044
Loading
Personal Weather Stations






























Interactive Weather Map
Tropical Storm Tracking
New forecast layout! Learn more

10-Day Weather Forecast

Advertisements
Track Severe Weather on mobile